Time,TemperatureF,DewpointF,PressureIn,WindDirection,WindDirectionDegrees,WindSpeedMPH,WindSpeedGustMPH,Humidity,HourlyPrecipIn,Conditions,Clouds,dailyrainin,SoftwareType,DateUTC
2013-03-15 00:01:00,57.3,42.0,29.18,SSE,147,0.0,2.0,56,0.00,,,0.00,weatherlink.com 1.10,2013-03-15 07:01:00,
2013-03-15 00:16:00,57.1,41.0,29.18,SSE,147,0.0,0.0,55,0.00,,,0.00,weatherlink.com 1.10,2013-03-15 07:16:00,
2013-03-15 00:32:00,56.5,41.0,29.18,SSE,147,0.0,0.0,57,0.00,,,0.00,weatherlink.com 1.10,2013-03-15 07:32:00,
2013-03-15 00:46:00,56.2,41.0,29.18,SSE,147,0.0,0.0,58,0.00,,,0.00,weatherlink.com 1.10,2013-03-15 07:46:00,
2013-03-15 01:01:00,56.2,41.0,29.18,SSE,147,0.0,0.0,58,0.00,,,0.00,weatherlink.com 1.10,2013-03-15 08:01:00,
2013-03-15 01:16:00,56.0,42.0,29.18,SSE,147,0.0,0.0,59,0.00,,,0.00,weatherlink.com 1.10,2013-03-15 08:16:00,
2013-03-15 01:31:00,55.6,41.0,29.17,SSE,147,0.0,1.0,59,0.00,,,0.00,weatherlink.com 1.10,2013-03-15 08:31:00,
2013-03-15 01:46:00,55.4,42.0,29.17,SSE,147,0.0,0.0,60,0.00,,,0.00,weatherlink.com 1.10,2013-03-15 08:46:00,
2013-03-15 02:01:00,55.3,41.0,29.17,SSE,147,0.0,1.0,60,0.00,,,0.00,weatherlink.com 1.10,2013-03-15 09:01:00,
2013-03-15 02:16:00,55.1,41.0,29.16,SSE,147,0.0,0.0,60,0.00,,,0.00,weatherlink.com 1.10,2013-03-15 09:16:00,
2013-03-15 02:46:00,53.7,42.0,29.17,SSE,147,0.0,2.0,65,0.00,,,0.00,weatherlink.com 1.10,2013-03-15 09:46:00,
2013-03-15 03:01:00,54.2,43.0,29.16,South,184,1.0,2.0,65,0.00,,,0.00,weatherlink.com 1.10,2013-03-15 10:01:00,
2013-03-15 03:17:00,53.4,44.0,29.16,WNW,298,1.0,2.0,71,0.00,,,0.00,weatherlink.com 1.10,2013-03-15 10:17:00,
2013-03-15 03:32:00,52.8,45.0,29.17,WNW,299,0.0,2.0,76,0.00,,,0.00,weatherlink.com 1.10,2013-03-15 10:32:00,
2013-03-15 03:47:00,52.4,46.0,29.17,WNW,299,0.0,0.0,79,0.00,,,0.00,weatherlink.com 1.10,2013-03-15 10:47:00,
2013-03-15 04:02:00,52.1,46.0,29.16,WNW,299,0.0,1.0,81,0.00,,,0.00,weatherlink.com 1.10,2013-03-15 11:02:00,
2013-03-15 04:17:00,51.7,45.0,29.16,WNW,299,0.0,0.0,79,0.00,,,0.00,weatherlink.com 1.10,2013-03-15 11:17:00,
2013-03-15 04:32:00,51.5,46.0,29.16,WNW,299,0.0,0.0,80,0.00,,,0.00,weatherlink.com 1.10,2013-03-15 11:32:00,
2013-03-15 04:47:00,51.3,45.0,29.15,WNW,299,0.0,0.0,78,0.00,,,0.00,weatherlink.com 1.10,2013-03-15 11:47:00,
2013-03-15 05:02:00,51.1,44.0,29.15,WNW,299,0.0,0.0,77,0.00,,,0.00,weatherlink.com 1.10,2013-03-15 12:02:00,
2013-03-15 05:17:00,51.3,44.0,29.15,WNW,299,0.0,1.0,76,0.00,,,0.00,weatherlink.com 1.10,2013-03-15 12:17:00,
2013-03-15 05:32:00,51.0,43.0,29.15,WNW,296,0.0,2.0,75,0.00,,,0.00,weatherlink.com 1.10,2013-03-15 12:32:00,
2013-03-15 05:47:00,50.8,43.0,29.15,South,186,2.0,2.0,74,0.00,,,0.00,weatherlink.com 1.10,2013-03-15 12:47:00,
2013-03-15 06:02:00,50.8,42.0,29.15,South,186,0.0,2.0,72,0.00,,,0.00,weatherlink.com 1.10,2013-03-15 13:02:00,
2013-03-15 06:17:00,50.7,43.0,29.15,South,186,0.0,1.0,74,0.00,,,0.00,weatherlink.com 1.10,2013-03-15 13:17:00,
2013-03-15 06:32:00,50.5,42.0,29.15,South,183,1.0,2.0,73,0.00,,,0.00,weatherlink.com 1.10,2013-03-15 13:32:00,
2013-03-15 06:47:00,50.6,42.0,29.15,South,183,0.0,0.0,73,0.00,,,0.00,weatherlink.com 1.10,2013-03-15 13:47:00,
2013-03-15 07:02:00,50.5,42.0,29.15,South,183,0.0,0.0,73,0.00,,,0.00,weatherlink.com 1.10,2013-03-15 14:02:00,
2013-03-15 07:17:00,50.1,43.0,29.15,South,183,0.0,0.0,76,0.00,,,0.00,weatherlink.com 1.10,2013-03-15 14:17:00,
2013-03-15 07:32:00,49.6,43.0,29.16,South,183,0.0,0.0,78,0.00,,,0.00,weatherlink.com 1.10,2013-03-15 14:32:00,
2013-03-15 07:47:00,49.6,43.0,29.16,South,183,0.0,0.0,79,0.00,,,0.00,weatherlink.com 1.10,2013-03-15 14:47:00,
2013-03-15 08:02:00,50.1,44.0,29.17,South,183,0.0,0.0,79,0.00,,,0.00,weatherlink.com 1.10,2013-03-15 15:02:00,
2013-03-15 08:17:00,51.1,45.0,29.18,SSW,211,0.0,1.0,79,0.00,,,0.00,weatherlink.com 1.10,2013-03-15 15:17:00,
2013-03-15 08:32:00,53.6,46.0,29.17,SSW,211,0.0,1.0,76,0.00,,,0.00,weatherlink.com 1.10,2013-03-15 15:32:00,
2013-03-15 08:47:00,53.9,46.0,29.17,West,266,0.0,2.0,75,0.00,,,0.00,weatherlink.com 1.10,2013-03-15 15:47:00,
2013-03-15 09:02:00,54.6,46.0,29.18,West,265,1.0,2.0,73,0.00,,,0.00,weatherlink.com 1.10,2013-03-15 16:02:00,
2013-03-15 09:17:00,57.5,47.0,29.18,South,190,0.0,2.0,67,0.00,,,0.00,weatherlink.com 1.10,2013-03-15 16:17:00,
2013-03-15 09:32:00,59.7,46.0,29.18,WNW,297,0.0,3.0,62,0.00,,,0.00,weatherlink.com 1.10,2013-03-15 16:32:00,
2013-03-15 09:47:00,62.4,47.0,29.18,WNW,297,0.0,2.0,57,0.00,,,0.00,weatherlink.com 1.10,2013-03-15 16:47:00,
2013-03-15 10:02:00,65.3,47.0,29.18,WNW,297,0.0,0.0,52,0.00,,,0.00,weatherlink.com 1.10,2013-03-15 17:02:00,
2013-03-15 10:17:00,67.8,46.0,29.17,WNW,297,0.0,2.0,46,0.00,,,0.00,weatherlink.com 1.10,2013-03-15 17:17:00,
2013-03-15 10:48:00,71.2,43.0,29.17,NW,305,0.0,3.0,37,0.00,,,0.00,weatherlink.com 1.10,2013-03-15 17:48:00,
2013-03-15 11:03:00,73.9,44.0,29.16,NW,305,0.0,2.0,34,0.00,,,0.00,weatherlink.com 1.10,2013-03-15 18:03:00,
2013-03-15 11:18:00,76.1,44.0,29.16,NW,305,2.0,2.0,32,0.00,,,0.00,weatherlink.com 1.10,2013-03-15 18:18:00,
2013-03-15 11:33:00,77.0,45.0,29.15,North,355,0.0,3.0,32,0.00,,,0.00,weatherlink.com 1.10,2013-03-15 18:33:00,
2013-03-15 11:48:00,78.7,46.0,29.14,WNW,290,1.0,3.0,31,0.00,,,0.00,weatherlink.com 1.10,2013-03-15 18:48:00,
2013-03-15 12:03:00,80.9,47.0,29.13,NNW,338,1.0,3.0,30,0.00,,,0.00,weatherlink.com 1.10,2013-03-15 19:03:00,
2013-03-15 12:18:00,81.1,51.0,29.13,NW,309,2.0,7.0,35,0.00,,,0.00,weatherlink.com 1.10,2013-03-15 19:18:00,
2013-03-15 12:33:00,80.3,53.0,29.12,NW,313,2.0,8.0,39,0.00,,,0.00,weatherlink.com 1.10,2013-03-15 19:33:00,
2013-03-15 12:48:00,78.6,52.0,29.12,West,279,3.0,10.0,40,0.00,,,0.00,weatherlink.com 1.10,2013-03-15 19:48:00,
2013-03-15 13:03:00,77.7,53.0,29.13,WSW,245,5.0,9.0,43,0.00,,,0.00,weatherlink.com 1.10,2013-03-15 20:03:00,
2013-03-15 13:18:00,75.5,54.0,29.12,SW,235,5.0,8.0,47,0.00,,,0.00,weatherlink.com 1.10,2013-03-15 20:18:00,
2013-03-15 13:33:00,74.8,54.0,29.13,SW,229,3.0,8.0,49,0.00,,,0.00,weatherlink.com 1.10,2013-03-15 20:33:00,
2013-03-15 13:48:00,72.9,54.0,29.13,WSW,240,7.0,10.0,52,0.00,,,0.00,weatherlink.com 1.10,2013-03-15 20:48:00,
2013-03-15 14:03:00,71.3,54.0,29.12,SW,223,5.0,10.0,54,0.00,,,0.00,weatherlink.com 1.10,2013-03-15 21:03:00,
2013-03-15 14:18:00,70.9,53.0,29.12,SW,235,6.0,10.0,53,0.00,,,0.00,weatherlink.com 1.10,2013-03-15 21:18:00,
2013-03-15 14:33:00,71.5,54.0,29.12,WNW,294,2.0,9.0,54,0.00,,,0.00,weatherlink.com 1.10,2013-03-15 21:33:00,
2013-03-15 14:48:00,71.5,53.0,29.11,SW,234,5.0,10.0,53,0.00,,,0.00,weatherlink.com 1.10,2013-03-15 21:48:00,
2013-03-15 15:03:00,70.7,53.0,29.11,West,265,4.0,8.0,54,0.00,,,0.00,weatherlink.com 1.10,2013-03-15 22:03:00,
2013-03-15 15:18:00,70.6,54.0,29.11,NW,324,3.0,7.0,56,0.00,,,0.00,weatherlink.com 1.10,2013-03-15 22:18:00,
2013-03-15 15:33:00,69.9,54.0,29.11,West,277,2.0,7.0,57,0.00,,,0.00,weatherlink.com 1.10,2013-03-15 22:33:00,
2013-03-15 15:48:00,69.8,55.0,29.11,NW,305,1.0,9.0,59,0.00,,,0.00,weatherlink.com 1.10,2013-03-15 22:48:00,
2013-03-15 16:03:00,70.5,53.0,29.11,NW,325,4.0,6.0,55,0.00,,,0.00,weatherlink.com 1.10,2013-03-15 23:03:00,
2013-03-15 16:18:00,71.0,54.0,29.11,WNW,294,1.0,7.0,56,0.00,,,0.00,weatherlink.com 1.10,2013-03-15 23:18:00,
2013-03-15 16:33:00,72.0,54.0,29.10,NNW,327,1.0,7.0,54,0.00,,,0.00,weatherlink.com 1.10,2013-03-15 23:33:00,
2013-03-15 16:48:00,73.4,54.0,29.09,NW,311,2.0,4.0,50,0.00,,,0.00,weatherlink.com 1.10,2013-03-15 23:48:00,
2013-03-15 17:04:00,72.9,53.0,29.09,NW,311,2.0,6.0,50,0.00,,,0.00,weatherlink.com 1.10,2013-03-16 00:04:00,
2013-03-15 17:18:00,72.7,52.0,29.09,NW,317,0.0,4.0,49,0.00,,,0.00,weatherlink.com 1.10,2013-03-16 00:18:00,
2013-03-15 17:34:00,73.8,53.0,29.09,NW,311,0.0,5.0,49,0.00,,,0.00,weatherlink.com 1.10,2013-03-16 00:34:00,
2013-03-15 17:49:00,72.6,53.0,29.09,West,273,0.0,6.0,51,0.00,,,0.00,weatherlink.com 1.10,2013-03-16 00:49:00,
2013-03-15 18:04:00,71.5,53.0,29.09,WSW,243,0.0,6.0,53,0.00,,,0.00,weatherlink.com 1.10,2013-03-16 01:04:00,
2013-03-15 18:19:00,69.7,54.0,29.10,WSW,240,1.0,6.0,58,0.00,,,0.00,weatherlink.com 1.10,2013-03-16 01:19:00,
2013-03-15 18:34:00,67.4,54.0,29.10,WNW,284,1.0,4.0,62,0.00,,,0.00,weatherlink.com 1.10,2013-03-16 01:34:00,
2013-03-15 18:49:00,65.2,53.0,29.10,West,275,1.0,5.0,65,0.00,,,0.00,weatherlink.com 1.10,2013-03-16 01:49:00,
2013-03-15 19:04:00,62.6,53.0,29.11,WSW,256,3.0,4.0,71,0.00,,,0.00,weatherlink.com 1.10,2013-03-16 02:04:00,
2013-03-15 19:19:00,61.7,53.0,29.11,SSW,202,0.0,2.0,74,0.00,,,0.00,weatherlink.com 1.10,2013-03-16 02:19:00,
2013-03-15 19:34:00,60.8,53.0,29.12,WNW,296,2.0,3.0,76,0.00,,,0.00,weatherlink.com 1.10,2013-03-16 02:34:00,
2013-03-15 19:49:00,59.6,53.0,29.12,WNW,291,0.0,2.0,78,0.00,,,0.00,weatherlink.com 1.10,2013-03-16 02:49:00,
2013-03-15 20:04:00,59.3,53.0,29.12,WNW,291,0.0,0.0,79,0.00,,,0.00,weatherlink.com 1.10,2013-03-16 03:04:00,
2013-03-15 20:19:00,58.7,53.0,29.12,NW,311,0.0,3.0,80,0.00,,,0.00,weatherlink.com 1.10,2013-03-16 03:19:00,
2013-03-15 20:34:00,58.4,53.0,29.11,NW,311,0.0,1.0,81,0.00,,,0.00,weatherlink.com 1.10,2013-03-16 03:34:00,
2013-03-15 20:49:00,58.1,53.0,29.10,NW,311,0.0,0.0,82,0.00,,,0.00,weatherlink.com 1.10,2013-03-16 03:49:00,
2013-03-15 21:04:00,57.6,53.0,29.10,NW,311,0.0,0.0,83,0.00,,,0.00,weatherlink.com 1.10,2013-03-16 04:04:00,
2013-03-15 21:19:00,57.2,52.0,29.10,NW,311,0.0,2.0,84,0.00,,,0.00,weatherlink.com 1.10,2013-03-16 04:19:00,
2013-03-15 21:34:00,56.8,52.0,29.10,WNW,282,0.0,1.0,83,0.00,,,0.00,weatherlink.com 1.10,2013-03-16 04:34:00,
2013-03-15 21:49:00,56.4,50.0,29.10,South,182,0.0,3.0,80,0.00,,,0.00,weatherlink.com 1.10,2013-03-16 04:49:00,
2013-03-15 22:05:00,55.8,49.0,29.10,South,182,0.0,2.0,77,0.00,,,0.00,weatherlink.com 1.10,2013-03-16 05:05:00,
2013-03-15 22:19:00,55.7,48.0,29.10,South,182,0.0,2.0,76,0.00,,,0.00,weatherlink.com 1.10,2013-03-16 05:19:00,
2013-03-15 22:34:00,55.6,46.0,29.10,South,178,1.0,3.0,71,0.00,,,0.00,weatherlink.com 1.10,2013-03-16 05:34:00,
2013-03-15 22:49:00,55.6,46.0,29.10,SSE,165,0.0,2.0,71,0.00,,,0.00,weatherlink.com 1.10,2013-03-16 05:49:00,
2013-03-15 23:04:00,55.9,46.0,29.10,SSE,165,0.0,1.0,70,0.00,,,0.00,weatherlink.com 1.10,2013-03-16 06:04:00,
2013-03-15 23:19:00,55.6,49.0,29.10,SW,214,0.0,2.0,77,0.00,,,0.00,weatherlink.com 1.10,2013-03-16 06:19:00,
2013-03-15 23:34:00,55.1,49.0,29.10,SW,214,0.0,0.0,81,0.00,,,0.00,weatherlink.com 1.10,2013-03-16 06:34:00,
2013-03-15 23:49:00,54.5,46.0,29.10,South,190,0.0,2.0,74,0.00,,,0.00,weatherlink.com 1.10,2013-03-16 06:49:00,